createdAt,value
2023-03-01T00:02:02.993Z,99.90
2023-03-01T00:04:31.844Z,99.60
2023-03-01T00:07:00.792Z,99.00
2023-03-01T00:09:29.689Z,98.70
2023-03-01T00:11:58.722Z,98.40
2023-03-01T00:14:27.608Z,98.20
2023-03-01T00:16:57.929Z,98.10
2023-03-01T00:19:27.070Z,98.10
2023-03-01T00:21:55.926Z,98.00
2023-03-01T00:24:24.765Z,97.80
2023-03-01T00:26:57.125Z,97.30
2023-03-01T00:29:26.689Z,96.90
2023-03-01T00:31:57.094Z,96.70
2023-03-01T00:34:26.101Z,96.70
2023-03-01T00:36:55.000Z,96.60
2023-03-01T00:39:23.885Z,96.60
2023-03-01T00:41:52.874Z,96.50
2023-03-01T00:44:21.672Z,96.50
2023-03-01T00:46:52.012Z,96.70
2023-03-01T00:49:22.334Z,96.80
2023-03-01T00:51:52.332Z,96.80
2023-03-01T00:54:21.224Z,96.10
2023-03-01T00:56:50.065Z,96.10
2023-03-01T00:59:18.946Z,95.90
2023-03-01T01:01:47.875Z,95.90
2023-03-01T01:04:17.225Z,95.60
2023-03-01T01:06:49.766Z,95.20
2023-03-01T01:09:20.042Z,94.80
2023-03-01T01:11:51.140Z,94.70
2023-03-01T01:14:20.659Z,94.50
2023-03-01T01:16:50.899Z,94.30
2023-03-01T01:19:19.906Z,94.30
2023-03-01T01:21:50.470Z,94.10
2023-03-01T01:24:20.233Z,93.80
2023-03-01T01:26:49.359Z,93.60
2023-03-01T01:29:18.287Z,93.40
2023-03-01T01:31:47.410Z,93.20
2023-03-01T01:34:18.019Z,93.20
2023-03-01T01:36:49.764Z,93.10
2023-03-01T01:39:20.218Z,93.00
2023-03-01T01:41:49.630Z,92.80
2023-03-01T01:44:22.344Z,92.80
2023-03-01T01:46:56.364Z,92.60
2023-03-01T01:49:34.034Z,92.50
2023-03-01T01:52:12.393Z,92.40
2023-03-01T01:54:51.702Z,92.20
2023-03-01T01:57:26.217Z,92.10
2023-03-01T01:59:57.548Z,92.10
2023-03-01T02:02:27.496Z,92.00
2023-03-01T02:05:06.084Z,92.10
2023-03-01T02:07:35.562Z,92.20
2023-03-01T02:10:06.546Z,92.30
2023-03-01T02:12:36.549Z,92.50
2023-03-01T02:15:06.863Z,92.70
2023-03-01T02:17:36.997Z,92.90
2023-03-01T02:20:20.004Z,93.10
2023-03-01T02:22:49.935Z,93.30
2023-03-01T02:25:30.429Z,93.40
2023-03-01T02:28:07.212Z,93.60
2023-03-01T02:30:38.217Z,93.70
2023-03-01T02:33:06.491Z,93.80
2023-03-01T02:35:38.512Z,93.90
2023-03-01T02:38:11.232Z,94.10
2023-03-01T02:40:42.040Z,94.20
2023-03-01T02:43:14.462Z,94.30
2023-03-01T02:45:51.978Z,94.50
2023-03-01T02:48:44.730Z,94.70
2023-03-01T02:51:30.965Z,94.80
2023-03-01T02:54:10.470Z,94.90
2023-03-01T02:56:40.002Z,95.00
2023-03-01T02:59:09.783Z,95.10
2023-03-01T03:01:40.326Z,95.10
2023-03-01T03:04:13.154Z,95.10
2023-03-01T03:06:42.616Z,95.30
2023-03-01T03:09:13.611Z,95.40
2023-03-01T03:11:44.323Z,95.50
2023-03-01T03:14:14.892Z,95.60
2023-03-01T03:16:50.754Z,95.60
2023-03-01T03:19:20.606Z,95.70
2023-03-01T03:21:50.729Z,95.80
2023-03-01T03:24:25.890Z,95.90
2023-03-01T03:27:13.589Z,96.20
2023-03-01T03:29:42.562Z,96.50
2023-03-01T03:32:12.992Z,96.60
2023-03-01T03:34:42.070Z,96.70
2023-03-01T03:37:31.926Z,96.70
2023-03-01T03:40:01.949Z,96.70
2023-03-01T03:42:31.165Z,96.60
2023-03-01T03:44:59.992Z,96.60
2023-03-01T03:47:30.395Z,96.70
2023-03-01T03:49:59.322Z,96.80
2023-03-01T03:52:28.177Z,97.00
2023-03-01T03:54:57.115Z,97.20
2023-03-01T03:57:26.154Z,97.30
2023-03-01T03:59:55.044Z,97.20
2023-03-01T04:02:24.382Z,97.20
2023-03-01T04:04:54.792Z,97.20
2023-03-01T04:07:23.780Z,97.10
2023-03-01T04:09:52.627Z,97.30
2023-03-01T04:12:24.254Z,97.20
2023-03-01T04:15:15.094Z,97.20
2023-03-01T04:17:44.509Z,97.30
2023-03-01T04:20:18.475Z,97.50
2023-03-01T04:22:48.667Z,97.60
2023-03-01T04:25:39.466Z,97.80
2023-03-01T04:28:09.255Z,98.10
2023-03-01T04:30:38.309Z,98.20
2023-03-01T04:33:08.074Z,98.40
2023-03-01T04:35:39.617Z,98.70
2023-03-01T04:38:10.246Z,98.90
2023-03-01T04:40:40.939Z,99.10
2023-03-01T04:43:11.654Z,99.20
2023-03-01T04:45:40.811Z,99.50
2023-03-01T04:48:09.875Z,99.80
2023-03-01T04:50:40.389Z,99.90
2023-03-01T04:53:09.406Z,99.90
2023-03-01T04:55:38.515Z,99.90
2023-03-01T04:58:07.909Z,99.90
2023-03-01T05:00:38.102Z,99.90
2023-03-01T05:03:07.080Z,99.90
2023-03-01T05:05:40.250Z,99.90
2023-03-01T05:08:18.501Z,99.90
2023-03-01T05:10:49.793Z,99.90
2023-03-01T05:13:22.282Z,99.90
2023-03-01T05:15:55.868Z,99.90
2023-03-01T05:18:26.923Z,99.90
2023-03-01T05:20:57.690Z,99.90
2023-03-01T05:23:28.345Z,99.90
2023-03-01T05:26:00.713Z,99.90
2023-03-01T05:28:30.762Z,99.90
2023-03-01T05:31:00.771Z,99.90
2023-03-01T05:33:30.247Z,99.90
2023-03-01T05:36:02.910Z,99.90
2023-03-01T05:38:33.314Z,99.90
2023-03-01T05:41:02.557Z,99.90
2023-03-01T05:43:35.166Z,99.90
2023-03-01T05:46:05.685Z,99.90
2023-03-01T05:48:35.600Z,99.90
2023-03-01T05:51:04.710Z,99.90
2023-03-01T05:53:34.934Z,99.90
2023-03-01T05:56:06.411Z,99.90
2023-03-01T05:58:35.310Z,99.90
2023-03-01T06:01:04.173Z,99.90
2023-03-01T06:03:33.153Z,99.90
2023-03-01T06:06:02.193Z,99.90
2023-03-01T06:08:31.718Z,99.90
2023-03-01T06:11:02.068Z,99.90
2023-03-01T06:13:31.067Z,99.90
2023-03-01T06:15:59.991Z,99.90
2023-03-01T06:18:28.897Z,99.90
2023-03-01T06:20:58.262Z,99.90
2023-03-01T06:23:27.197Z,99.90
2023-03-01T06:25:56.320Z,99.90
2023-03-01T06:28:26.820Z,99.90
2023-03-01T06:30:55.957Z,99.90
2023-03-01T06:33:25.597Z,99.90
2023-03-01T06:35:57.091Z,99.90
2023-03-01T06:38:26.281Z,99.90
2023-03-01T06:40:57.706Z,99.90
2023-03-01T06:43:27.989Z,99.90
2023-03-01T06:45:57.109Z,99.90
2023-03-01T06:48:25.933Z,99.90
2023-03-01T06:50:54.934Z,99.90
2023-03-01T06:53:23.906Z,99.90
2023-03-01T06:55:57.301Z,99.90
2023-03-01T06:58:27.914Z,99.90
2023-03-01T07:00:56.986Z,99.90
2023-03-01T07:03:25.877Z,99.90
2023-03-01T07:05:54.760Z,99.90
2023-03-01T07:08:23.824Z,99.90
2023-03-01T07:10:58.252Z,99.90
2023-03-01T07:13:28.712Z,99.90
2023-03-01T07:15:58.039Z,99.90
2023-03-01T07:18:27.357Z,99.90
2023-03-01T07:20:56.386Z,99.90
2023-03-01T07:23:25.713Z,99.90
2023-03-01T07:25:56.354Z,99.90
2023-03-01T07:28:34.028Z,99.90
2023-03-01T07:31:04.344Z,99.90
2023-03-01T07:33:34.603Z,99.90
2023-03-01T07:36:06.284Z,99.90
2023-03-01T07:38:35.915Z,99.90
2023-03-01T07:41:06.933Z,99.90
2023-03-01T07:43:37.674Z,99.90
2023-03-01T07:46:10.135Z,99.90
2023-03-01T07:48:40.271Z,99.90
2023-03-01T07:51:10.772Z,99.90
2023-03-01T07:53:39.819Z,99.90
2023-03-01T07:56:20.576Z,99.90
2023-03-01T07:58:55.004Z,99.90
2023-03-01T08:01:45.160Z,99.90
2023-03-01T08:04:15.899Z,99.90
2023-03-01T08:07:17.517Z,99.90
2023-03-01T08:09:50.214Z,99.90
2023-03-01T08:12:19.336Z,99.90
2023-03-01T08:14:53.941Z,99.90
2023-03-01T08:17:37.235Z,99.90
2023-03-01T08:20:08.289Z,99.90
2023-03-01T08:22:37.273Z,99.90
2023-03-01T08:25:06.874Z,99.90
2023-03-01T08:27:35.876Z,99.90
2023-03-01T08:30:07.216Z,99.90
2023-03-01T08:32:40.059Z,99.90
2023-03-01T08:35:10.087Z,99.90
2023-03-01T08:37:39.461Z,99.90
2023-03-01T08:40:11.316Z,99.90
2023-03-01T08:42:40.374Z,99.90
2023-03-01T08:45:12.904Z,99.90
2023-03-01T08:47:41.971Z,99.90
2023-03-01T08:50:12.496Z,99.90
2023-03-01T08:52:41.619Z,99.90
2023-03-01T08:55:11.502Z,99.90
2023-03-01T08:57:40.591Z,99.90
2023-03-01T09:00:16.104Z,99.90
2023-03-01T09:02:45.091Z,99.90
2023-03-01T09:05:14.146Z,99.90
2023-03-01T09:07:43.403Z,99.90
2023-03-01T09:10:14.003Z,99.90
2023-03-01T09:12:43.070Z,99.90
2023-03-01T09:15:13.905Z,99.90
2023-03-01T09:17:42.799Z,99.90
2023-03-01T09:20:13.188Z,99.90
2023-03-01T09:22:42.274Z,99.90
2023-03-01T09:25:11.477Z,99.90
2023-03-01T09:27:40.455Z,99.90
2023-03-01T09:30:10.764Z,99.90
2023-03-01T09:32:43.806Z,99.90
2023-03-01T09:35:13.679Z,99.90
2023-03-01T09:37:44.122Z,99.90
2023-03-01T09:40:19.138Z,99.90
2023-03-01T09:42:57.508Z,99.90
2023-03-01T09:45:32.270Z,99.90
2023-03-01T09:48:04.565Z,99.90
2023-03-01T09:50:38.619Z,99.90
2023-03-01T09:53:13.303Z,99.50
2023-03-01T09:55:46.838Z,99.40
2023-03-01T09:58:41.396Z,99.40
2023-03-01T10:01:27.609Z,99.10
2023-03-01T10:04:15.427Z,98.80
2023-03-01T10:06:52.635Z,98.50
2023-03-01T10:09:22.883Z,98.40
2023-03-01T10:11:55.386Z,98.50
2023-03-01T10:14:35.635Z,98.60
2023-03-01T10:17:07.778Z,98.60
2023-03-01T10:19:42.612Z,98.90
2023-03-01T10:22:22.411Z,98.80
2023-03-01T10:24:52.801Z,98.70
2023-03-01T10:27:26.610Z,98.50
2023-03-01T10:30:08.592Z,98.20
2023-03-01T10:32:39.348Z,98.00
2023-03-01T10:35:21.848Z,98.00
2023-03-01T10:38:04.541Z,97.70
2023-03-01T10:40:34.703Z,97.50
2023-03-01T10:43:08.634Z,97.50
2023-03-01T10:45:43.615Z,97.60
2023-03-01T10:48:16.601Z,97.60
2023-03-01T10:50:49.130Z,97.60
2023-03-01T10:53:30.531Z,97.80
2023-03-01T10:56:02.536Z,97.60
2023-03-01T10:58:32.715Z,97.30
2023-03-01T11:01:03.443Z,97.10
2023-03-01T11:03:34.345Z,97.00
2023-03-01T11:06:08.487Z,96.90
2023-03-01T11:08:40.530Z,96.70
2023-03-01T11:11:32.703Z,96.90
2023-03-01T11:14:16.126Z,97.10
2023-03-01T11:17:19.646Z,97.00
2023-03-01T11:20:05.005Z,96.60
2023-03-01T11:22:37.057Z,96.50
2023-03-01T11:25:10.809Z,96.40
2023-03-01T11:27:45.878Z,96.40
2023-03-01T11:30:20.630Z,96.60
2023-03-01T11:32:56.129Z,96.60
2023-03-01T11:35:28.237Z,96.40
2023-03-01T11:38:28.135Z,96.30
2023-03-01T11:41:04.067Z,96.00
2023-03-01T11:43:55.350Z,95.90
2023-03-01T11:46:52.547Z,95.50
2023-03-01T11:50:06.027Z,95.40
2023-03-01T11:52:50.898Z,95.40
2023-03-01T11:55:50.070Z,95.40
2023-03-01T11:58:37.188Z,95.40
2023-03-01T12:01:17.252Z,95.50
2023-03-01T12:04:09.917Z,95.50
2023-03-01T12:06:57.551Z,95.60
2023-03-01T12:09:55.513Z,95.60
2023-03-01T12:12:57.378Z,95.70
2023-03-01T12:15:53.628Z,95.70
2023-03-01T12:19:10.704Z,95.70
2023-03-01T12:21:57.406Z,95.80
2023-03-01T12:24:41.584Z,95.80
2023-03-01T12:27:34.796Z,95.90
2023-03-01T12:30:22.836Z,95.70
2023-03-01T12:33:04.548Z,95.80
2023-03-01T12:35:47.135Z,95.60
2023-03-01T12:38:35.253Z,95.60
2023-03-01T12:41:25.007Z,95.80
2023-03-01T12:44:11.171Z,95.90
2023-03-01T12:46:59.292Z,95.90
2023-03-01T12:49:38.770Z,95.80
2023-03-01T12:52:15.536Z,95.70
2023-03-01T12:54:45.206Z,95.60
2023-03-01T12:57:23.412Z,95.60
2023-03-01T13:00:08.818Z,95.70
2023-03-01T13:02:48.013Z,96.00
2023-03-01T13:05:27.109Z,96.10
2023-03-01T13:08:04.374Z,96.10
2023-03-01T13:10:39.181Z,96.20
2023-03-01T13:13:21.748Z,96.20
2023-03-01T13:15:52.427Z,96.40
2023-03-01T13:18:42.873Z,96.60
2023-03-01T13:21:11.792Z,96.70
2023-03-01T13:23:42.778Z,96.70
2023-03-01T13:26:21.866Z,96.60
2023-03-01T13:29:01.293Z,96.50
2023-03-01T13:32:05.059Z,96.50
2023-03-01T13:34:47.310Z,96.50
2023-03-01T13:37:32.609Z,96.70
2023-03-01T13:40:26.797Z,96.90
2023-03-01T13:43:05.269Z,97.00
2023-03-01T13:45:42.498Z,97.10
2023-03-01T13:48:14.314Z,97.10
2023-03-01T13:50:51.975Z,97.10
2023-03-01T13:53:24.344Z,97.20
2023-03-01T13:55:59.633Z,97.30
2023-03-01T13:58:31.165Z,97.20
2023-03-01T14:01:02.846Z,97.30
2023-03-01T14:03:32.954Z,97.40
2023-03-01T14:06:15.190Z,97.50
2023-03-01T14:08:46.911Z,97.70
2023-03-01T14:11:43.474Z,97.60
2023-03-01T14:14:32.566Z,97.70
2023-03-01T14:17:14.059Z,97.70
2023-03-01T14:19:46.110Z,97.90
2023-03-01T14:22:24.740Z,98.00
2023-03-01T14:24:57.544Z,97.90
2023-03-01T14:27:29.169Z,98.10
2023-03-01T14:30:00.413Z,98.30
2023-03-01T14:32:31.934Z,98.50
2023-03-01T14:35:02.208Z,98.60
2023-03-01T14:37:35.464Z,98.90
2023-03-01T14:40:07.319Z,98.50
2023-03-01T14:42:38.533Z,98.60
2023-03-01T14:45:19.305Z,98.70
2023-03-01T14:47:49.795Z,98.80
2023-03-01T14:50:25.879Z,98.80
2023-03-01T14:52:58.482Z,98.90
2023-03-01T14:55:31.983Z,99.00
2023-03-01T14:58:12.753Z,99.10
2023-03-01T15:00:49.662Z,99.10
2023-03-01T15:03:27.112Z,99.10
2023-03-01T15:05:56.424Z,99.20
2023-03-01T15:08:34.134Z,99.30
2023-03-01T15:11:08.906Z,99.50
2023-03-01T15:13:38.889Z,99.50
2023-03-01T15:16:11.584Z,99.60
2023-03-01T15:18:46.222Z,99.60
2023-03-01T15:21:20.413Z,99.70
2023-03-01T15:23:56.666Z,99.80
2023-03-01T15:26:28.275Z,99.90
2023-03-01T15:29:00.472Z,99.90
2023-03-01T15:31:32.298Z,99.90
2023-03-01T15:34:12.989Z,99.90
2023-03-01T15:36:51.258Z,99.90
2023-03-01T15:39:38.465Z,99.90
2023-03-01T15:42:09.998Z,99.90
2023-03-01T15:44:43.657Z,99.90
2023-03-01T15:47:29.023Z,99.90
2023-03-01T15:49:59.905Z,99.90
2023-03-01T15:52:31.235Z,99.90
2023-03-01T15:55:06.511Z,99.90
2023-03-01T15:57:35.636Z,99.90
2023-03-01T16:00:13.578Z,99.90
2023-03-01T16:02:44.291Z,99.90
2023-03-01T16:05:20.546Z,99.90
2023-03-01T16:07:50.117Z,99.90
2023-03-01T16:10:21.109Z,99.90
2023-03-01T16:12:50.890Z,99.90
2023-03-01T16:15:22.386Z,99.90
2023-03-01T16:17:53.253Z,99.90
2023-03-01T16:20:28.870Z,99.90
2023-03-01T16:23:01.277Z,99.90
2023-03-01T16:25:33.510Z,99.90
2023-03-01T16:28:06.179Z,99.90
2023-03-01T16:30:54.792Z,99.90
2023-03-01T16:33:26.844Z,99.90
2023-03-01T16:36:03.364Z,99.90
2023-03-01T16:38:36.323Z,99.90
2023-03-01T16:41:07.349Z,99.90
2023-03-01T16:43:36.300Z,99.90
2023-03-01T16:46:13.080Z,99.90
2023-03-01T16:48:42.181Z,99.90
2023-03-01T16:51:11.790Z,99.90
2023-03-01T16:53:42.093Z,99.90
2023-03-01T16:56:16.256Z,99.90
2023-03-01T16:58:45.893Z,99.90
2023-03-01T17:01:18.441Z,99.90
2023-03-01T17:03:48.617Z,99.90
2023-03-01T17:06:21.799Z,99.90
2023-03-01T17:08:51.022Z,99.90
2023-03-01T17:11:22.763Z,99.90
2023-03-01T17:13:51.825Z,99.90
2023-03-01T17:16:22.250Z,99.90
2023-03-01T17:18:52.239Z,99.90
2023-03-01T17:21:21.307Z,99.90
2023-03-01T17:23:50.553Z,99.90
2023-03-01T17:26:26.600Z,99.90
2023-03-01T17:28:56.541Z,99.90
2023-03-01T17:34:22.028Z,99.90
2023-03-01T17:36:54.840Z,99.90
2023-03-01T17:39:31.478Z,99.90
2023-03-01T17:42:07.581Z,99.90
2023-03-01T17:44:37.311Z,99.90
2023-03-01T17:47:07.152Z,99.90
2023-03-01T17:49:36.002Z,99.90
2023-03-01T17:52:05.212Z,99.90
2023-03-01T17:54:35.000Z,99.90
2023-03-01T17:57:06.366Z,99.90
2023-03-01T17:59:38.194Z,99.90
2023-03-01T18:02:07.594Z,99.90
2023-03-01T18:04:37.773Z,99.90
2023-03-01T18:07:07.162Z,99.90
2023-03-01T18:09:36.474Z,99.90
2023-03-01T18:12:06.983Z,99.90
2023-03-01T18:14:37.771Z,99.90
2023-03-01T18:17:12.298Z,99.90
2023-03-01T18:19:43.170Z,99.90
2023-03-01T18:22:12.414Z,99.90
2023-03-01T18:24:41.635Z,99.90
2023-03-01T18:27:12.519Z,99.90
2023-03-01T18:29:42.078Z,99.90
2023-03-01T18:32:11.267Z,99.90
2023-03-01T18:34:40.590Z,99.90
2023-03-01T18:37:10.228Z,99.90
2023-03-01T18:39:42.040Z,99.90
2023-03-01T18:42:15.194Z,99.90
2023-03-01T18:44:45.370Z,99.90
2023-03-01T18:47:16.105Z,99.90
2023-03-01T18:49:46.526Z,99.90
2023-03-01T18:52:15.362Z,99.90
2023-03-01T18:54:50.981Z,99.90
2023-03-01T18:57:23.613Z,99.90
2023-03-01T18:59:55.404Z,99.90
2023-03-01T19:02:24.490Z,99.90
2023-03-01T19:04:56.432Z,99.90
2023-03-01T19:07:25.650Z,99.90
2023-03-01T19:09:54.718Z,99.90
2023-03-01T19:12:28.344Z,99.90
2023-03-01T19:14:57.831Z,99.90
2023-03-01T19:17:31.150Z,99.90
2023-03-01T19:20:00.339Z,99.90
2023-03-01T19:22:29.882Z,99.90
2023-03-01T19:24:59.060Z,99.90
2023-03-01T19:27:29.744Z,99.90
2023-03-01T19:29:58.778Z,99.90
2023-03-01T19:32:28.028Z,99.90
2023-03-01T19:34:57.023Z,99.90
2023-03-01T19:37:26.101Z,99.90
2023-03-01T19:39:55.758Z,99.90
2023-03-01T19:42:33.731Z,99.90
2023-03-01T19:45:04.336Z,99.90
2023-03-01T19:47:33.352Z,99.90
2023-03-01T19:50:02.400Z,99.90
2023-03-01T19:52:31.344Z,99.90
2023-03-01T19:55:09.371Z,99.90
2023-03-01T19:57:40.762Z,99.90
2023-03-01T20:00:12.919Z,99.90
2023-03-01T20:02:41.949Z,99.90
2023-03-01T20:05:11.468Z,99.90
2023-03-01T20:07:41.030Z,99.90
2023-03-01T20:10:11.749Z,99.90
2023-03-01T20:12:41.836Z,99.90
2023-03-01T20:15:13.329Z,99.90
2023-03-01T20:17:42.307Z,99.90
2023-03-01T20:20:12.814Z,99.90
2023-03-01T20:22:41.966Z,99.90
2023-03-01T20:25:12.202Z,99.90
2023-03-01T20:30:53.984Z,99.90
2023-03-01T20:33:24.344Z,99.90
2023-03-01T20:35:55.127Z,99.90
2023-03-01T20:38:24.358Z,99.90
2023-03-01T20:40:58.062Z,99.90
2023-03-01T20:43:27.747Z,99.90
2023-03-01T20:46:04.379Z,99.90
2023-03-01T20:48:33.606Z,99.90
2023-03-01T20:51:06.165Z,99.90
2023-03-01T20:53:35.696Z,99.90
2023-03-01T20:56:05.412Z,99.90
2023-03-01T20:58:35.905Z,99.90
2023-03-01T21:01:08.355Z,99.90
2023-03-01T21:03:57.290Z,99.90
2023-03-01T21:06:26.526Z,99.90
2023-03-01T21:08:56.167Z,99.90
2023-03-01T21:11:26.489Z,99.90
2023-03-01T21:13:56.233Z,99.90
2023-03-01T21:16:27.484Z,99.90
2023-03-01T21:18:56.701Z,99.90
2023-03-01T21:21:25.972Z,99.90
2023-03-01T21:23:56.275Z,99.90
2023-03-01T21:26:27.485Z,99.90
2023-03-01T21:28:59.321Z,99.90
2023-03-01T21:31:34.074Z,99.90
2023-03-01T21:34:05.575Z,99.90
2023-03-01T21:36:36.227Z,99.90
2023-03-01T21:39:06.962Z,99.90
2023-03-01T21:41:37.561Z,99.90
2023-03-01T21:44:08.237Z,99.90
2023-03-01T21:46:42.864Z,99.90
2023-03-01T21:49:12.740Z,99.90
2023-03-01T21:51:41.781Z,99.90
2023-03-01T21:54:13.273Z,99.90
2023-03-01T21:56:42.737Z,99.90
2023-03-01T21:59:15.399Z,99.90
2023-03-01T22:01:45.890Z,99.90
2023-03-01T22:04:15.941Z,99.90
2023-03-01T22:06:54.574Z,99.90
2023-03-01T22:09:24.961Z,99.90
2023-03-01T22:11:58.662Z,99.90
2023-03-01T22:14:28.103Z,99.90
2023-03-01T22:16:59.085Z,99.90
2023-03-01T22:19:28.896Z,99.90
2023-03-01T22:21:57.767Z,99.90
2023-03-01T22:24:27.384Z,99.90
2023-03-01T22:26:56.513Z,99.90
2023-03-01T22:29:27.972Z,99.90
2023-03-01T22:31:59.135Z,99.90
2023-03-01T22:34:28.572Z,99.90
2023-03-01T22:36:57.599Z,99.90
2023-03-01T22:39:26.679Z,99.90
2023-03-01T22:41:56.496Z,99.90
2023-03-01T22:44:26.120Z,99.90
2023-03-01T22:46:55.199Z,99.90
2023-03-01T22:49:26.000Z,99.90
2023-03-01T22:51:54.830Z,99.90
2023-03-01T22:54:23.797Z,99.90
2023-03-01T22:56:52.711Z,99.90
2023-03-01T22:59:23.295Z,99.90
2023-03-01T23:01:53.574Z,99.90
2023-03-01T23:04:25.082Z,99.90
2023-03-01T23:06:55.173Z,99.90
2023-03-01T23:09:26.597Z,99.90
2023-03-01T23:11:56.691Z,99.90
2023-03-01T23:14:26.475Z,99.90
2023-03-01T23:16:55.603Z,99.90
2023-03-01T23:19:26.013Z,99.90
2023-03-01T23:21:54.973Z,99.90
2023-03-01T23:24:32.176Z,99.90
2023-03-01T23:27:02.260Z,99.90
2023-03-01T23:29:31.367Z,99.90
2023-03-01T23:32:00.959Z,99.90
2023-03-01T23:34:31.394Z,99.90
2023-03-01T23:37:00.437Z,99.90
2023-03-01T23:39:30.109Z,99.90
2023-03-01T23:41:59.337Z,99.90
2023-03-01T23:44:28.213Z,99.90
2023-03-01T23:46:57.086Z,99.90
2023-03-01T23:49:28.117Z,99.90
2023-03-01T23:51:58.586Z,99.90
2023-03-01T23:54:28.442Z,99.90
2023-03-01T23:57:02.343Z,99.90
2023-03-01T23:59:31.714Z,99.90
